Terminal Aerodrome Forecast
Issued by NWS

Home | Current Version | Previous Version | Text Only | Print | Product List | Glossary On
Versions: 1 2 3 4 5 6 7 8 9 10 11 12 13 14 15 16 17 18 19 20 21 22 23 24 25 26 27 28 29 30
558
FTUS46 KMFR 082340
TAFRBG
TAF
KRBG 082340Z 0900/0924 23004KT P6SM SKC WS020/13040KT
     FM090600 00000KT P6SM OVC005 WS020/16030KT
     FM092200 23004KT P6SM SKC WS020/18025KT=

USA.gov is the U.S. government's official web portal to all federal, state and local government web resources and services.